This is the latest recevied weather packets stored in our database for station/object KD2PO-13. If no packets are shown the sender has not sent any weather packets the latest 10 day(s).
| Time | Temp. | Humidity | Pressure | Rain* | Wind** | Luminosity | Snow |
|---|---|---|---|---|---|---|---|
| 1778005219 | 16.67° C | 79% | 0 hPa | 1.78 mm | - | - | - |
| 1778004919 | 18.33° C | 73% | 0 hPa | 0.51 mm | - | - | - |
| 1778004619 | 20° C | 61% | 0 hPa | 0 mm | - | - | - |
| 1778004319 | 21.11° C | 53% | 0 hPa | 0 mm | - | - | - |
| 1778004019 | 21.67° C | 51% | 0 hPa | 0 mm | - | - | - |
| 1778003719 | 21.67° C | 49% | 0 hPa | 0 mm | - | - | - |
| 1778003118 | 22.78° C | 47% | 0 hPa | 0 mm | - | - | - |
| 1778002819 | 22.78° C | 48% | 0 hPa | 0 mm | - | - | - |
| 1778002518 | 22.78° C | 49% | 0 hPa | 0 mm | - | - | - |
| 1778002218 | 22.22° C | 49% | 0 hPa | 0 mm | - | - | - |
| 1778001918 | 21.67° C | 52% | 0 hPa | 0 mm | - | - | - |
| 1778001618 | 21.67° C | 51% | 0 hPa | 0 mm | - | - | - |
| 1778001319 | 21.67° C | 51% | 0 hPa | 0 mm | - | - | - |
| 1778001019 | 21.67° C | 50% | 0 hPa | 0 mm | - | - | - |
| 1778000719 | 21.67° C | 51% | 0 hPa | 0 mm | - | - | - |
| 1778000419 | 21.67° C | 51% | 0 hPa | 0 mm | - | - | - |
| 1778000119 | 21.67° C | 50% | 0 hPa | 0 mm | - | - | - |
| 1777999519 | 21.67° C | 50% | 0 hPa | 0 mm | - | - | - |
| 1777999219 | 21.67° C | 49% | 0 hPa | 0 mm | - | - | - |
| 1777998919 | 21.67° C | 50% | 0 hPa | 0 mm | - | - | - |
| 1777998319 | 21.67° C | 51% | 0 hPa | 0 mm | - | - | - |
| 1777998018 | 21.67° C | 50% | 0 hPa | 0 mm | - | - | - |
| 1777997718 | 21.67° C | 50% | 0 hPa | 0 mm | - | - | - |
| 1777997418 | 21.67° C | 50% | 0 hPa | 0 mm | - | - | - |
| 1777997118 | 21.67° C | 51% | 0 hPa | 0 mm | - | - | - |
* Rain latest hour (hover to see other rain measurements)
** Current wind speed in m/s (hover to see current wind gust speed)